Time;durP1;ratioP1;P1;durP2;ratioP2;P2;SDS_P1;SDS_P2;PMS_P1;PMS_P2;Temp;Humidity;BMP_temperature;BMP_pressure;BME280_temperature;BME280_humidity;BME280_pressure;Samples;Min_cycle;Max_cycle;Signal;HPM_P1;HPM_P2
2021/10/28 00:13:20;;;;;;;7.70;5.28;;;;;;;;;;5085435;28;20533;-52
2021/10/28 00:15:38;;;;;;;7.72;5.28;;;;;;;;;;5083415;28;20028;-50
2021/10/28 00:18:09;;;;;;;7.05;4.43;;;;;;;;;;5086578;28;20035;-52
2021/10/28 00:20:35;;;;;;;6.25;4.57;;;;;;;;;;5086219;28;20487;-50
2021/10/28 00:23:03;;;;;;;6.93;4.80;;;;;;;;;;5085577;28;20441;-48
2021/10/28 00:25:29;;;;;;;6.18;4.13;;;;;;;;;;5086751;28;20586;-51
2021/10/28 00:27:56;;;;;;;6.72;4.53;;;;;;;;;;5086647;28;20027;-50
2021/10/28 00:30:22;;;;;;;6.40;4.85;;;;;;;;;;5086091;28;20066;-51
2021/10/28 00:32:48;;;;;;;7.18;4.32;;;;;;;;;;5071522;28;20032;-51
2021/10/28 00:35:14;;;;;;;8.07;4.63;;;;;;;;;;5065393;28;20028;-48
2021/10/28 00:37:41;;;;;;;5.30;4.28;;;;;;;;;;5066332;28;20103;-48
2021/10/28 00:40:08;;;;;;;6.40;4.47;;;;;;;;;;5065461;28;20086;-48
2021/10/28 00:42:35;;;;;;;6.05;4.07;;;;;;;;;;5077551;28;20036;-52
2021/10/28 00:45:02;;;;;;;5.53;3.90;;;;;;;;;;5086480;28;20028;-51
2021/10/28 00:47:33;;;;;;;6.10;4.10;;;;;;;;;;5086352;28;20103;-51
2021/10/28 00:49:59;;;;;;;4.90;4.10;;;;;;;;;;5085961;28;20023;-51
2021/10/28 00:52:25;;;;;;;5.85;4.35;;;;;;;;;;5074467;28;20617;-50
2021/10/28 00:54:52;;;;;;;7.55;4.50;;;;;;;;;;5065976;28;20024;-52
2021/10/28 00:57:18;;;;;;;5.82;4.35;;;;;;;;;;5065874;28;20107;-49
2021/10/28 00:59:45;;;;;;;6.22;4.18;;;;;;;;;;5066113;28;20487;-50
2021/10/28 01:02:11;;;;;;;5.32;4.18;;;;;;;;;;5073600;28;20027;-48
2021/10/28 01:04:38;;;;;;;7.15;4.40;;;;;;;;;;5085804;28;20058;-51
2021/10/28 01:07:04;;;;;;;6.00;4.30;;;;;;;;;;5086033;28;20554;-50
2021/10/28 01:09:31;;;;;;;6.13;4.40;;;;;;;;;;5086600;28;20407;-51
2021/10/28 01:11:57;;;;;;;5.40;3.85;;;;;;;;;;5077868;28;20031;-51
2021/10/28 01:14:23;;;;;;;6.25;4.45;;;;;;;;;;5065476;28;20118;-52
2021/10/28 01:16:54;;;;;;;6.90;4.50;;;;;;;;;;5068878;28;20032;-51
2021/10/28 01:19:22;;;;;;;6.20;4.10;;;;;;;;;;5068815;28;20546;-50
2021/10/28 01:21:48;;;;;;;5.50;3.92;;;;;;;;;;5068775;28;20060;-51
2021/10/28 01:24:15;;;;;;;6.53;4.43;;;;;;;;;;5068713;28;20702;-48
2021/10/28 01:26:41;;;;;;;4.97;3.83;;;;;;;;;;5069147;28;20036;-50
2021/10/28 01:29:07;;;;;;;4.88;3.72;;;;;;;;;;5068910;28;20062;-51
2021/10/28 01:31:34;;;;;;;5.75;3.92;;;;;;;;;;5069244;28;20025;-50
2021/10/28 01:34:02;;;;;;;6.20;4.00;;;;;;;;;;5088287;28;20107;-49
2021/10/28 01:36:28;;;;;;;7.25;4.00;;;;;;;;;;5089076;28;20157;-52
2021/10/28 01:38:54;;;;;;;5.82;3.60;;;;;;;;;;5089429;28;20107;-52
2021/10/28 01:41:20;;;;;;;4.80;3.58;;;;;;;;;;5087804;28;20466;-52
2021/10/28 01:43:47;;;;;;;4.63;3.50;;;;;;;;;;5089151;28;20024;-49
2021/10/28 01:46:13;;;;;;;4.57;3.47;;;;;;;;;;5087248;28;20039;-48
2021/10/28 01:48:40;;;;;;;5.72;3.72;;;;;;;;;;5088339;28;20024;-52
2021/10/28 01:51:10;;;;;;;4.68;3.58;;;;;;;;;;5083288;28;20503;-50
2021/10/28 01:53:38;;;;;;;4.63;3.42;;;;;;;;;;5067936;28;20096;-51
2021/10/28 01:56:05;;;;;;;4.35;3.20;;;;;;;;;;5066914;28;20120;-51
2021/10/28 01:58:31;;;;;;;4.35;3.28;;;;;;;;;;5069332;28;20078;-51
2021/10/28 02:00:58;;;;;;;3.97;2.85;;;;;;;;;;5068510;28;20024;-49
2021/10/28 02:03:24;;;;;;;3.38;2.67;;;;;;;;;;5067863;28;20036;-54
2021/10/28 02:05:51;;;;;;;3.33;2.90;;;;;;;;;;5070324;28;20033;-48
2021/10/28 02:08:17;;;;;;;5.05;3.40;;;;;;;;;;5088242;28;20028;-51
2021/10/28 02:10:43;;;;;;;5.28;3.03;;;;;;;;;;5088421;28;20558;-48
2021/10/28 02:13:10;;;;;;;3.33;2.78;;;;;;;;;;5088233;28;20395;-50
2021/10/28 02:15:36;;;;;;;3.92;2.97;;;;;;;;;;5086879;28;20540;-52
2021/10/28 02:18:02;;;;;;;3.58;2.83;;;;;;;;;;5068580;28;20029;-50
2021/10/28 02:20:28;;;;;;;3.92;2.78;;;;;;;;;;5066884;28;20553;-50
2021/10/28 02:22:55;;;;;;;3.67;2.65;;;;;;;;;;5068237;28;20446;-52
2021/10/28 02:25:21;;;;;;;3.92;2.78;;;;;;;;;;5067683;28;20094;-51
2021/10/28 02:27:48;;;;;;;3.70;2.60;;;;;;;;;;5085194;28;20426;-50
2021/10/28 02:30:14;;;;;;;2.80;2.50;;;;;;;;;;5087752;28;20023;-51
2021/10/28 02:32:41;;;;;;;4.18;2.50;;;;;;;;;;5088059;28;20093;-51
2021/10/28 02:35:08;;;;;;;5.20;2.75;;;;;;;;;;5087842;28;20039;-52
2021/10/28 02:37:35;;;;;;;3.05;2.75;;;;;;;;;;5086929;28;20495;-51
2021/10/28 02:40:01;;;;;;;4.60;2.75;;;;;;;;;;5088599;28;20379;-51
2021/10/28 02:42:27;;;;;;;4.05;2.60;;;;;;;;;;5087202;28;20032;-49
2021/10/28 02:44:53;;;;;;;3.10;2.47;;;;;;;;;;5087586;28;20059;-50
2021/10/28 02:47:19;;;;;;;3.58;2.70;;;;;;;;;;5074991;28;20364;-49
2021/10/28 02:49:46;;;;;;;3.50;2.65;;;;;;;;;;5067248;28;20020;-51
2021/10/28 02:52:12;;;;;;;4.40;2.78;;;;;;;;;;5067418;28;20023;-50
2021/10/28 02:54:38;;;;;;;3.88;2.85;;;;;;;;;;5067569;28;20029;-52
2021/10/28 02:57:06;;;;;;;3.70;2.83;;;;;;;;;;5067897;28;20037;-51
2021/10/28 02:59:32;;;;;;;3.60;2.47;;;;;;;;;;5067925;28;20555;-51
2021/10/28 03:01:59;;;;;;;3.50;2.63;;;;;;;;;;5065899;28;20468;-52
2021/10/28 03:04:25;;;;;;;3.38;2.70;;;;;;;;;;5067369;28;20032;-52
2021/10/28 03:06:52;;;;;;;3.58;2.83;;;;;;;;;;5066601;28;20033;-51
2021/10/28 03:09:23;;;;;;;3.88;2.55;;;;;;;;;;5067003;28;20100;-51
2021/10/28 03:11:51;;;;;;;2.85;2.50;;;;;;;;;;5067209;28;20028;-52
2021/10/28 03:15:04;;;;;;;5.82;3.13;;;;;;;;;;5066771;28;20025;-52
2021/10/28 03:17:24;;;;;;;3.97;2.78;;;;;;;;;;5073561;28;20105;-52
2021/10/28 03:27:36;;;;;;;4.43;2.90;;;;;;;;;;5067623;28;20029;-48
2021/10/28 03:30:03;;;;;;;3.70;2.97;;;;;;;;;;5067165;28;20052;-49
2021/10/28 03:32:29;;;;;;;4.47;3.10;;;;;;;;;;5066726;28;20036;-49
2021/10/28 03:34:56;;;;;;;3.88;3.03;;;;;;;;;;5066687;28;20405;-49
2021/10/28 03:37:45;;;;;;;3.53;3.05;;;;;;;;;;5081794;28;20106;-49
2021/10/28 03:40:34;;;;;;;4.18;3.15;;;;;;;;;;5086625;28;20115;-49
2021/10/28 03:46:07;;;;;;;3.80;3.35;;;;;;;;;;5083647;28;20031;-51
2021/10/28 03:51:21;;;;;;;3.88;2.85;;;;;;;;;;5066321;28;20449;-49
2021/10/28 04:18:46;;;;;;;;;;;;;;;;;;5085726;28;20077;-48
2021/10/28 04:21:35;;;;;;;5.90;4.05;;;;;;;;;;5072592;28;19951;-49
2021/10/28 04:29:51;;;;;;;3.53;2.80;;;;;;;;;;5047081;28;20028;-50
2021/10/28 04:32:17;;;;;;;4.05;2.85;;;;;;;;;;5062958;28;20025;-50
2021/10/28 04:34:44;;;;;;;4.15;3.15;;;;;;;;;;5064592;28;20041;-48
2021/10/28 04:37:11;;;;;;;4.70;3.00;;;;;;;;;;5065821;28;20107;-51
2021/10/28 04:39:37;;;;;;;3.70;3.13;;;;;;;;;;5065573;28;20063;-49
2021/10/28 04:42:04;;;;;;;4.82;3.10;;;;;;;;;;5066340;28;20033;-52
2021/10/28 04:44:30;;;;;;;3.83;2.67;;;;;;;;;;5066635;28;20103;-50
2021/10/28 04:46:56;;;;;;;4.60;3.00;;;;;;;;;;5065914;28;20025;-52
2021/10/28 04:49:22;;;;;;;3.65;2.95;;;;;;;;;;5064931;28;20729;-50
2021/10/28 04:51:50;;;;;;;2.60;2.33;;;;;;;;;;5069562;28;20056;-52
2021/10/28 04:54:16;;;;;;;3.05;2.50;;;;;;;;;;5069101;28;20065;-52
2021/10/28 04:56:42;;;;;;;3.15;2.58;;;;;;;;;;5079746;28;20032;-51
2021/10/28 04:59:09;;;;;;;3.80;2.85;;;;;;;;;;5089205;28;20399;-48
2021/10/28 05:01:35;;;;;;;4.78;2.97;;;;;;;;;;5087358;28;20035;-51
2021/10/28 05:04:02;;;;;;;3.38;2.42;;;;;;;;;;5090380;28;20738;-50
2021/10/28 05:06:28;;;;;;;2.92;2.17;;;;;;;;;;5089512;28;20044;-51
2021/10/28 05:08:54;;;;;;;3.45;2.60;;;;;;;;;;5089908;28;20116;-50
2021/10/28 05:11:22;;;;;;;3.40;2.38;;;;;;;;;;5086535;28;20270;-52
2021/10/28 05:13:50;;;;;;;3.13;2.17;;;;;;;;;;5069549;28;20067;-52
2021/10/28 05:16:16;;;;;;;3.25;2.40;;;;;;;;;;5069012;28;20519;-51
2021/10/28 05:18:45;;;;;;;3.13;2.53;;;;;;;;;;5069423;28;20106;-51
2021/10/28 05:21:11;;;;;;;4.30;2.67;;;;;;;;;;5084031;28;20028;-52
2021/10/28 05:23:38;;;;;;;3.38;2.40;;;;;;;;;;5069163;28;20086;-50
2021/10/28 05:26:04;;;;;;;5.40;3.15;;;;;;;;;;5069384;28;20120;-47
2021/10/28 05:28:31;;;;;;;5.38;3.20;;;;;;;;;;5068472;28;20376;-51
2021/10/28 05:30:57;;;;;;;4.35;3.05;;;;;;;;;;5080472;28;20441;-51
2021/10/28 05:33:23;;;;;;;5.07;3.03;;;;;;;;;;5089316;28;20028;-51
2021/10/28 05:35:50;;;;;;;4.82;3.45;;;;;;;;;;5089286;28;20028;-51
2021/10/28 05:38:16;;;;;;;4.13;3.17;;;;;;;;;;5083771;28;20027;-51
2021/10/28 05:40:42;;;;;;;4.80;2.88;;;;;;;;;;5072605;28;20030;-50
2021/10/28 05:43:09;;;;;;;3.30;2.67;;;;;;;;;;5080026;28;20079;-51
2021/10/28 05:45:36;;;;;;;4.22;3.10;;;;;;;;;;5068519;28;20020;-51
2021/10/28 05:48:02;;;;;;;3.92;3.20;;;;;;;;;;5069923;28;20028;-51
2021/10/28 05:50:29;;;;;;;5.30;3.78;;;;;;;;;;5083887;28;20402;-50
2021/10/28 05:52:57;;;;;;;4.70;3.38;;;;;;;;;;5074474;28;20162;-51
2021/10/28 05:55:24;;;;;;;4.38;2.83;;;;;;;;;;5088528;28;20031;-50
2021/10/28 05:57:51;;;;;;;4.68;3.17;;;;;;;;;;5087594;28;20111;-48
2021/10/28 06:00:18;;;;;;;3.92;2.88;;;;;;;;;;5072396;28;20070;-50
2021/10/28 06:02:44;;;;;;;3.92;2.85;;;;;;;;;;5082860;28;20090;-49
2021/10/28 06:05:10;;;;;;;4.32;3.30;;;;;;;;;;5069005;28;20032;-48
2021/10/28 06:07:37;;;;;;;4.00;2.92;;;;;;;;;;5079550;28;20095;-49
2021/10/28 06:10:03;;;;;;;4.72;3.15;;;;;;;;;;5076055;28;20444;-48
2021/10/28 06:12:35;;;;;;;4.15;3.08;;;;;;;;;;5075368;28;20016;-48
2021/10/28 06:15:02;;;;;;;3.80;3.05;;;;;;;;;;5093171;28;20042;-49
2021/10/28 06:17:34;;;;;;;4.72;3.20;;;;;;;;;;5098261;28;20027;-48
2021/10/28 06:20:01;;;;;;;4.65;2.85;;;;;;;;;;5081978;28;20589;-52
2021/10/28 06:22:28;;;;;;;4.10;2.90;;;;;;;;;;5088238;28;20028;-49
2021/10/28 06:24:55;;;;;;;4.78;3.30;;;;;;;;;;5087966;28;20039;-49
2021/10/28 06:27:21;;;;;;;5.50;3.40;;;;;;;;;;5088050;28;20028;-49
2021/10/28 06:29:47;;;;;;;5.35;3.65;;;;;;;;;;5079363;28;20024;-49
2021/10/28 06:32:14;;;;;;;4.20;3.22;;;;;;;;;;5080997;28;20031;-51
2021/10/28 06:34:43;;;;;;;5.30;3.75;;;;;;;;;;5088293;28;20574;-47
2021/10/28 06:37:10;;;;;;;4.78;3.45;;;;;;;;;;5086765;28;20050;-52
2021/10/28 06:39:37;;;;;;;5.05;3.47;;;;;;;;;;5082051;28;20031;-48
2021/10/28 06:42:05;;;;;;;5.10;3.40;;;;;;;;;;5085479;28;20055;-48
2021/10/28 06:44:31;;;;;;;5.70;3.30;;;;;;;;;;5076796;28;20035;-49
2021/10/28 06:46:57;;;;;;;5.57;3.72;;;;;;;;;;5081862;28;20404;-50
2021/10/28 06:49:24;;;;;;;4.97;3.38;;;;;;;;;;5066655;28;20032;-48
2021/10/28 06:51:51;;;;;;;5.28;3.40;;;;;;;;;;5070576;28;20020;-50
2021/10/28 06:54:23;;;;;;;4.53;3.15;;;;;;;;;;5087452;28;20923;-49
2021/10/28 07:04:52;;;;;;;4.90;3.13;;;;;;;;;;5087129;28;20038;-51
2021/10/28 07:07:20;;;;;;;4.30;2.95;;;;;;;;;;5072064;28;20107;-51
2021/10/28 07:09:58;;;;;;;5.25;3.13;;;;;;;;;;5081378;28;20050;-49
2021/10/28 07:15:09;;;;;;;4.25;2.85;;;;;;;;;;5085686;28;20908;-50
2021/10/28 07:18:00;;;;;;;4.38;2.83;;;;;;;;;;5085873;28;20024;-49
2021/10/28 07:58:29;;;;;;;3.55;2.47;;;;;;;;;;5062514;28;20044;-48
2021/10/28 08:23:07;;;;;;;3.05;2.50;;;;;;;;;;5064905;28;20078;-50
2021/10/28 08:31:03;;;;;;;;;;;;;;;;;;5078115;28;20085;-50
2021/10/28 08:33:29;;;;;;;2.63;2.17;;;;;;;;;;5079579;28;20338;-52
2021/10/28 08:36:06;;;;;;;2.47;1.92;;;;;;;;;;5090583;28;20034;-51
2021/10/28 08:38:32;;;;;;;3.13;2.20;;;;;;;;;;5075770;28;20450;-52
2021/10/28 08:40:59;;;;;;;2.42;2.05;;;;;;;;;;5070332;28;20478;-51
2021/10/28 08:43:26;;;;;;;2.38;1.85;;;;;;;;;;5072447;28;20029;-51
2021/10/28 08:45:53;;;;;;;2.60;1.95;;;;;;;;;;5083350;28;20028;-48
2021/10/28 08:48:28;;;;;;;2.40;1.67;;;;;;;;;;5085735;28;20033;-52
2021/10/28 08:51:04;;;;;;;1.95;1.58;;;;;;;;;;5069398;28;20059;-49
2021/10/28 09:29:13;;;;;;;2.70;1.70;;;;;;;;;;5067519;28;20028;-49
2021/10/28 09:31:49;;;;;;;1.75;1.40;;;;;;;;;;5067764;28;20750;-51
2021/10/28 09:45:18;;;;;;;2.17;1.83;;;;;;;;;;5074494;28;20054;-50
2021/10/28 09:50:26;;;;;;;4.18;2.33;;;;;;;;;;5086415;28;19969;-50
2021/10/28 09:53:21;;;;;;;2.25;1.60;;;;;;;;;;5087249;28;20026;-51
2021/10/28 09:58:47;;;;;;;1.90;1.70;;;;;;;;;;5078196;28;20105;-52
2021/10/28 10:01:32;;;;;;;2.33;1.90;;;;;;;;;;5043627;28;20448;-50
2021/10/28 10:03:59;;;;;;;;;;;;;;;;;;5067507;28;20025;-51
2021/10/28 10:06:26;;;;;;;2.13;1.70;;;;;;;;;;5068150;28;19912;-51
2021/10/28 10:08:55;;;;;;;1.40;1.20;;;;;;;;;;5066995;28;20393;-51
2021/10/28 10:11:25;;;;;;;1.58;1.27;;;;;;;;;;5066687;28;20562;-52
2021/10/28 10:13:52;;;;;;;1.42;1.30;;;;;;;;;;5066481;28;20040;-48
2021/10/28 10:16:19;;;;;;;1.40;1.15;;;;;;;;;;5066827;28;20419;-51
2021/10/28 10:18:49;;;;;;;1.17;1.08;;;;;;;;;;5072537;28;20039;-50
2021/10/28 10:21:37;;;;;;;1.20;1.10;;;;;;;;;;5084099;28;20515;-50
2021/10/28 10:24:39;;;;;;;1.42;1.17;;;;;;;;;;5087301;28;20020;-51
2021/10/28 11:24:24;;;;;;;4.13;1.60;;;;;;;;;;5072601;28;20032;-56
2021/10/28 11:32:52;;;;;;;3.38;2.08;;;;;;;;;;5054372;28;20875;-53
2021/10/28 12:44:51;;;;;;;8.38;5.63;;;;;;;;;;5096505;28;20097;-53
2021/10/28 12:47:28;;;;;;;6.75;4.10;;;;;;;;;;5085800;28;20039;-53
2021/10/28 13:03:59;;;;;;;3.95;2.35;;;;;;;;;;5084598;28;20124;-52
2021/10/28 13:50:22;;;;;;;2.00;1.30;;;;;;;;;;5067957;28;20127;-53
2021/10/28 13:55:52;;;;;;;;;;;;;;;;;;5068205;28;20637;-52
2021/10/28 14:34:45;;;;;;;1.90;1.10;;;;;;;;;;5068039;28;20032;-51
2021/10/28 15:38:52;;;;;;;1.33;1.20;;;;;;;;;;5080746;28;20043;-49
2021/10/28 16:00:08;;;;;;;2.80;1.83;;;;;;;;;;5070776;28;20075;-51
2021/10/28 16:21:50;;;;;;;1.45;1.30;;;;;;;;;;5077901;28;20034;-51
2021/10/28 16:24:16;;;;;;;2.08;1.50;;;;;;;;;;5074055;28;20491;-50
2021/10/28 16:26:42;;;;;;;1.80;1.50;;;;;;;;;;5071142;28;20046;-51
2021/10/28 16:29:11;;;;;;;2.00;1.45;;;;;;;;;;5072804;28;20514;-52
2021/10/28 16:31:39;;;;;;;3.10;2.05;;;;;;;;;;5075738;28;20028;-51
2021/10/28 16:34:05;;;;;;;1.90;1.60;;;;;;;;;;5069021;28;20462;-52
2021/10/28 16:36:31;;;;;;;6.68;3.50;;;;;;;;;;5080576;28;20024;-50
2021/10/28 16:39:00;;;;;;;5.18;3.45;;;;;;;;;;5073400;28;20414;-49
2021/10/28 16:41:26;;;;;;;4.07;3.10;;;;;;;;;;5066385;28;20104;-50
2021/10/28 16:43:53;;;;;;;3.33;2.40;;;;;;;;;;5077416;28;20115;-47
2021/10/28 16:46:20;;;;;;;2.78;2.17;;;;;;;;;;5068736;28;20028;-50
2021/10/28 16:48:47;;;;;;;2.10;1.90;;;;;;;;;;5087270;28;20181;-52
2021/10/28 16:51:13;;;;;;;2.28;1.60;;;;;;;;;;5084033;28;20024;-50
2021/10/28 16:53:39;;;;;;;2.33;1.80;;;;;;;;;;5080287;28;20028;-48
2021/10/28 16:56:05;;;;;;;1.85;1.50;;;;;;;;;;5068324;28;20024;-47
2021/10/28 16:58:31;;;;;;;2.13;1.60;;;;;;;;;;5070580;28;20412;-48
2021/10/28 17:00:57;;;;;;;1.65;1.40;;;;;;;;;;5072128;28;20307;-48
2021/10/28 17:03:24;;;;;;;3.10;1.80;;;;;;;;;;5087858;28;20028;-47
2021/10/28 17:05:50;;;;;;;1.92;1.73;;;;;;;;;;5086109;28;20214;-48
2021/10/28 17:08:16;;;;;;;1.88;1.67;;;;;;;;;;5071319;28;20405;-48
2021/10/28 17:10:43;;;;;;;2.47;1.83;;;;;;;;;;5065353;28;20058;-49
2021/10/28 17:13:09;;;;;;;2.08;1.63;;;;;;;;;;5076432;28;20035;-49
2021/10/28 17:15:35;;;;;;;2.30;1.55;;;;;;;;;;5072292;28;20028;-50
2021/10/28 17:18:01;;;;;;;2.33;1.75;;;;;;;;;;5075356;28;20174;-49
2021/10/28 17:20:34;;;;;;;1.98;1.50;;;;;;;;;;5078933;28;20064;-51
2021/10/28 17:23:00;;;;;;;2.13;1.60;;;;;;;;;;5067381;28;20039;-49
2021/10/28 17:25:27;;;;;;;2.42;1.40;;;;;;;;;;5083709;28;20507;-51
2021/10/28 17:27:54;;;;;;;2.03;1.60;;;;;;;;;;5073092;28;20673;-49
2021/10/28 17:30:21;;;;;;;2.13;1.70;;;;;;;;;;5066173;28;21109;-48
2021/10/28 17:32:47;;;;;;;1.70;1.30;;;;;;;;;;5074818;28;20043;-50
2021/10/28 17:35:14;;;;;;;1.52;1.40;;;;;;;;;;5083675;28;20036;-51
2021/10/28 17:37:40;;;;;;;1.90;1.40;;;;;;;;;;5080455;28;20028;-48
2021/10/28 17:40:07;;;;;;;1.65;1.30;;;;;;;;;;5077741;28;20036;-50
2021/10/28 17:42:34;;;;;;;2.58;1.70;;;;;;;;;;5075674;28;20020;-49
2021/10/28 17:45:02;;;;;;;1.70;1.55;;;;;;;;;;5066182;28;20107;-52
2021/10/28 17:47:28;;;;;;;2.53;1.80;;;;;;;;;;5073500;28;20179;-47
2021/10/28 17:49:56;;;;;;;2.03;1.73;;;;;;;;;;5073583;28;20048;-49
2021/10/28 17:52:22;;;;;;;1.75;1.35;;;;;;;;;;5072036;28;20569;-48
2021/10/28 17:54:49;;;;;;;2.15;1.70;;;;;;;;;;5069603;28;20021;-47
2021/10/28 17:57:15;;;;;;;1.90;1.55;;;;;;;;;;5078545;28;20060;-48
2021/10/28 17:59:45;;;;;;;2.53;1.70;;;;;;;;;;5087616;28;20113;-47
2021/10/28 18:02:12;;;;;;;3.92;2.03;;;;;;;;;;5083606;28;20118;-48
2021/10/28 18:04:38;;;;;;;3.35;2.50;;;;;;;;;;5086781;28;20043;-48
2021/10/28 18:07:05;;;;;;;5.20;3.00;;;;;;;;;;5067776;28;20033;-50
2021/10/28 18:09:31;;;;;;;6.60;4.53;;;;;;;;;;5066946;28;20056;-50
2021/10/28 18:11:57;;;;;;;9.05;5.32;;;;;;;;;;5087172;28;20039;-51
2021/10/28 18:14:27;;;;;;;9.43;5.72;;;;;;;;;;5086570;28;20028;-48
2021/10/28 18:16:53;;;;;;;10.02;6.00;;;;;;;;;;5081644;28;20095;-48
2021/10/28 18:19:20;;;;;;;9.50;5.75;;;;;;;;;;5069191;28;20441;-47
2021/10/28 18:21:53;;;;;;;8.07;5.00;;;;;;;;;;5079063;28;20032;-49
2021/10/28 18:24:19;;;;;;;6.88;4.85;;;;;;;;;;5066876;28;20033;-48
2021/10/28 18:26:46;;;;;;;5.88;3.90;;;;;;;;;;5070878;28;20021;-47
2021/10/28 18:29:12;;;;;;;6.53;4.03;;;;;;;;;;5070856;28;20036;-49
2021/10/28 18:31:39;;;;;;;5.55;3.65;;;;;;;;;;5077743;28;20058;-50
2021/10/28 18:34:06;;;;;;;5.78;3.78;;;;;;;;;;5073035;28;20419;-48
2021/10/28 18:36:34;;;;;;;6.40;3.75;;;;;;;;;;5078746;28;20094;-48
2021/10/28 18:39:02;;;;;;;6.10;3.80;;;;;;;;;;5073216;28;20044;-48
2021/10/28 18:41:29;;;;;;;5.93;3.10;;;;;;;;;;5074910;28;20020;-47
2021/10/28 18:43:55;;;;;;;7.25;3.97;;;;;;;;;;5074020;28;20506;-49
2021/10/28 18:46:22;;;;;;;6.72;3.15;;;;;;;;;;5084318;28;20074;-48
2021/10/28 18:48:50;;;;;;;5.13;3.15;;;;;;;;;;5073974;28;20074;-47
2021/10/28 18:51:17;;;;;;;4.20;2.67;;;;;;;;;;5065881;28;20074;-48
2021/10/28 18:53:45;;;;;;;4.30;2.70;;;;;;;;;;5068073;28;20028;-48
2021/10/28 18:56:11;;;;;;;3.22;2.10;;;;;;;;;;5076003;28;20039;-49
2021/10/28 18:58:38;;;;;;;3.58;2.53;;;;;;;;;;5073580;28;20035;-48
2021/10/28 19:01:05;;;;;;;3.92;2.00;;;;;;;;;;5077789;28;20503;-47
2021/10/28 19:03:32;;;;;;;3.22;1.98;;;;;;;;;;5068254;28;20028;-50
2021/10/28 19:05:59;;;;;;;2.85;2.10;;;;;;;;;;5077134;28;20035;-51
2021/10/28 19:08:25;;;;;;;3.95;1.98;;;;;;;;;;5078268;28;20398;-50
2021/10/28 19:10:52;;;;;;;2.58;1.98;;;;;;;;;;5074425;28;20032;-50
2021/10/28 19:13:19;;;;;;;2.90;1.70;;;;;;;;;;5080053;28;20418;-49
2021/10/28 19:15:45;;;;;;;3.25;1.67;;;;;;;;;;5075903;28;20055;-50
2021/10/28 19:18:13;;;;;;;3.00;1.83;;;;;;;;;;5064821;28;20024;-50
2021/10/28 19:20:39;;;;;;;5.78;3.17;;;;;;;;;;5079539;28;20035;-47
2021/10/28 19:23:07;;;;;;;6.13;3.83;;;;;;;;;;5079688;28;20465;-50
2021/10/28 19:25:34;;;;;;;9.45;4.65;;;;;;;;;;5074066;28;20028;-51
2021/10/28 19:28:01;;;;;;;6.85;4.03;;;;;;;;;;5066228;28;20040;-50
2021/10/28 19:30:37;;;;;;;7.88;4.78;;;;;;;;;;5081754;28;20058;-49
2021/10/28 19:33:31;;;;;;;5.82;3.65;;;;;;;;;;5074977;28;20547;-52
2021/10/28 19:35:59;;;;;;;5.68;3.70;;;;;;;;;;5077322;28;20036;-51
2021/10/28 19:46:33;;;;;;;5.82;3.78;;;;;;;;;;5073861;28;20058;-50
2021/10/28 19:49:00;;;;;;;5.15;3.55;;;;;;;;;;5067962;28;20033;-52
2021/10/28 19:51:27;;;;;;;8.20;4.13;;;;;;;;;;5072474;28;20028;-52
2021/10/28 19:53:55;;;;;;;7.40;4.50;;;;;;;;;;5078457;28;20027;-49
2021/10/28 19:56:21;;;;;;;6.32;4.25;;;;;;;;;;5072270;28;20469;-52
2021/10/28 19:58:53;;;;;;;5.95;3.78;;;;;;;;;;5076482;28;20068;-52
2021/10/28 20:14:42;;;;;;;;;;;;;;;;;;5064613;28;20071;-51
2021/10/28 20:20:09;;;;;;;5.50;3.38;;;;;;;;;;5068056;28;20074;-51
2021/10/28 20:22:38;;;;;;;5.03;3.15;;;;;;;;;;5079835;28;20063;-50
2021/10/28 20:25:05;;;;;;;4.50;2.90;;;;;;;;;;5080013;28;20036;-49
2021/10/28 20:27:31;;;;;;;3.13;2.65;;;;;;;;;;5079214;28;20081;-50
2021/10/28 20:29:57;;;;;;;5.78;3.03;;;;;;;;;;5074908;28;20024;-48
2021/10/28 20:32:23;;;;;;;4.70;3.60;;;;;;;;;;5070811;28;20483;-51
2021/10/28 20:35:11;;;;;;;4.43;2.80;;;;;;;;;;5069016;28;20040;-52
2021/10/28 20:37:37;;;;;;;4.55;3.28;;;;;;;;;;5066464;28;20035;-49
2021/10/28 20:40:04;;;;;;;4.57;3.30;;;;;;;;;;5068061;28;20024;-50
2021/10/28 20:42:37;;;;;;;4.18;3.47;;;;;;;;;;5073991;28;20511;-50
2021/10/28 20:45:08;;;;;;;4.60;2.83;;;;;;;;;;5084741;28;20028;-52
2021/10/28 20:47:35;;;;;;;5.25;3.38;;;;;;;;;;5067925;28;20035;-52
2021/10/28 20:50:02;;;;;;;5.35;3.53;;;;;;;;;;5072244;28;20040;-50
2021/10/28 20:52:29;;;;;;;3.95;3.10;;;;;;;;;;5085279;28;20017;-50
2021/10/28 20:54:55;;;;;;;5.45;3.60;;;;;;;;;;5078195;28;20033;-51
2021/10/28 20:57:21;;;;;;;5.07;3.40;;;;;;;;;;5067099;28;20154;-48
2021/10/28 20:59:48;;;;;;;5.13;3.40;;;;;;;;;;5078849;28;20126;-51
2021/10/28 21:02:14;;;;;;;5.72;3.75;;;;;;;;;;5069111;28;20510;-51
2021/10/28 21:04:40;;;;;;;5.13;3.67;;;;;;;;;;5080805;28;20081;-48
2021/10/28 21:07:07;;;;;;;5.65;3.40;;;;;;;;;;5083078;28;20046;-51
2021/10/28 21:09:33;;;;;;;4.85;3.28;;;;;;;;;;5080753;28;20020;-50
2021/10/28 21:11:59;;;;;;;5.82;3.72;;;;;;;;;;5068053;28;20016;-51
2021/10/28 21:14:25;;;;;;;4.57;3.28;;;;;;;;;;5071292;28;20077;-47
2021/10/28 21:16:51;;;;;;;4.88;3.00;;;;;;;;;;5082324;28;20057;-50
2021/10/28 21:19:17;;;;;;;3.55;2.78;;;;;;;;;;5080553;28;20745;-47
2021/10/28 21:21:44;;;;;;;3.72;2.63;;;;;;;;;;5088627;28;20532;-48
2021/10/28 21:24:11;;;;;;;3.95;2.60;;;;;;;;;;5085719;28;20065;-49
2021/10/28 21:26:37;;;;;;;4.10;2.63;;;;;;;;;;5075568;28;20045;-49
2021/10/28 21:29:04;;;;;;;4.18;2.72;;;;;;;;;;5072313;28;20036;-51
2021/10/28 21:31:30;;;;;;;3.65;2.50;;;;;;;;;;5075816;28;20024;-48
2021/10/28 21:33:56;;;;;;;3.72;2.10;;;;;;;;;;5068618;28;20028;-50
2021/10/28 21:36:23;;;;;;;4.18;2.58;;;;;;;;;;5068188;28;20078;-51
2021/10/28 21:38:50;;;;;;;3.15;2.38;;;;;;;;;;5069283;28;20024;-49
2021/10/28 21:41:16;;;;;;;5.18;3.03;;;;;;;;;;5070965;28;20031;-48
2021/10/28 21:43:42;;;;;;;4.88;2.65;;;;;;;;;;5073561;28;20067;-51
2021/10/28 21:46:08;;;;;;;3.47;2.45;;;;;;;;;;5080673;28;20035;-48
2021/10/28 21:48:35;;;;;;;5.22;3.17;;;;;;;;;;5088415;28;20055;-50
2021/10/28 21:51:03;;;;;;;6.22;2.85;;;;;;;;;;5086840;28;20020;-48
2021/10/28 21:53:34;;;;;;;3.65;2.63;;;;;;;;;;5088678;28;20020;-50
2021/10/28 22:01:23;;;;;;;3.88;2.10;;;;;;;;;;5068505;28;20085;-51
2021/10/28 22:04:16;;;;;;;3.60;2.05;;;;;;;;;;5075642;28;20031;-50
2021/10/28 22:25:35;;;;;;;;;;;;;;;;;;5079198;28;19919;-48
2021/10/28 22:28:01;;;;;;;;;;;;;;;;;;5086514;28;19912;-50
2021/10/28 22:30:28;;;;;;;;;;;;;;;;;;5088556;28;19935;-49
2021/10/28 22:32:54;;;;;;;;;;;;;;;;;;5072589;28;19959;-49
2021/10/28 22:35:46;;;;;;;;;;;;;;;;;;5086452;28;20006;-50
2021/10/28 22:38:08;;;;;;;;;;;;;;;;;;5081831;28;19927;-52
2021/10/28 22:40:40;;;;;;;;;;;;;;;;;;5068985;28;19954;-52
2021/10/28 22:43:06;;;;;;;;;;;;;;;;;;5066118;28;19915;-52
2021/10/28 22:45:32;;;;;;;;;;;;;;;;;;5076005;28;20602;-50
2021/10/28 22:47:58;;;;;;;;;;;;;;;;;;5086515;28;19915;-52
2021/10/28 22:50:25;;;;;;;;;;;;;;;;;;5067625;28;19904;-52
2021/10/28 22:52:51;;;;;;;;;;;;;;;;;;5068304;28;19935;-51
2021/10/28 22:55:18;;;;;;;;;;;;;;;;;;5068588;28;20375;-51
2021/10/28 22:57:56;;;;;;;;;;;;;;;;;;5067959;28;20394;-48
2021/10/28 23:00:32;;;;;;;;;;;;;;;;;;5067753;28;19908;-52
2021/10/28 23:08:49;;;;;;;;;;;;;;;;;;5081385;28;19918;-49
2021/10/28 23:16:41;;;;;;;;;;;;;;;;;;5067396;28;20003;-50
2021/10/28 23:21:52;;;;;;;;;;;;;;;;;;5067784;28;19931;-50
2021/10/28 23:24:18;;;;;;;;;;;;;;;;;;5068193;28;20364;-53
2021/10/28 23:26:44;;;;;;;;;;;;;;;;;;5067340;28;20009;-52
2021/10/28 23:29:10;;;;;;;;;;;;;;;;;;5067251;28;19982;-51
2021/10/28 23:31:36;;;;;;;;;;;;;;;;;;5070331;28;19915;-51
2021/10/28 23:34:02;;;;;;;;;;;;;;;;;;5087561;28;19907;-51
2021/10/28 23:36:28;;;;;;;;;;;;;;;;;;5073594;28;19994;-50
2021/10/28 23:38:54;;;;;;;;;;;;;;;;;;5067441;28;19911;-51
2021/10/28 23:41:20;;;;;;;;;;;;;;;;;;5072968;28;19912;-51
2021/10/28 23:43:46;;;;;;;;;;;;;;;;;;5088034;28;20282;-51
2021/10/28 23:46:12;;;;;;;;;;;;;;;;;;5087079;28;19994;-50
2021/10/28 23:48:38;;;;;;;;;;;;;;;;;;5087280;28;19904;-52
2021/10/28 23:51:03;;;;;;;;;;;;;;;;;;5086415;28;19914;-49
2021/10/28 23:53:29;;;;;;;;;;;;;;;;;;5087478;28;19911;-51
2021/10/28 23:55:55;;;;;;;;;;;;;;;;;;5079559;28;19908;-51
2021/10/28 23:58:23;;;;;;;;;;;;;;;;;;5086920;28;19908;-51
